createdAt,value
2022-12-13T00:02:03.999Z,76.55
2022-12-13T00:04:33.064Z,76.11
2022-12-13T00:07:01.991Z,76.37
2022-12-13T00:09:30.768Z,76.53
2022-12-13T00:12:00.060Z,76.40
2022-12-13T00:14:31.855Z,76.24
2022-12-13T00:17:02.594Z,76.13
2022-12-13T00:19:31.433Z,76.28
2022-12-13T00:22:00.026Z,76.30
2022-12-13T00:24:28.610Z,76.13
2022-12-13T00:26:57.089Z,76.29
2022-12-13T00:29:26.080Z,76.16
2022-12-13T00:32:02.202Z,75.95
2022-12-13T00:34:30.944Z,76.09
2022-12-13T00:36:59.601Z,75.88
2022-12-13T00:39:29.150Z,75.70
2022-12-13T00:41:58.130Z,75.66
2022-12-13T00:44:26.818Z,75.56
2022-12-13T00:46:55.397Z,75.37
2022-12-13T00:49:24.806Z,75.32
2022-12-13T00:51:53.419Z,75.25
2022-12-13T00:54:21.883Z,75.22
2022-12-13T00:56:51.693Z,75.23
2022-12-13T00:59:23.493Z,75.40
2022-12-13T01:01:55.482Z,75.44
2022-12-13T01:04:24.423Z,75.18
2022-12-13T01:06:55.375Z,74.97
2022-12-13T01:09:31.350Z,74.83
2022-12-13T01:12:05.746Z,74.65
2022-12-13T01:14:39.141Z,74.81
2022-12-13T01:17:08.127Z,74.71
2022-12-13T01:19:36.819Z,74.62
2022-12-13T01:22:07.462Z,74.70
2022-12-13T01:24:36.361Z,74.45
2022-12-13T01:27:04.937Z,74.40
2022-12-13T01:29:33.838Z,74.29
2022-12-13T01:32:02.218Z,74.35
2022-12-13T01:34:31.011Z,74.56
2022-12-13T01:36:59.495Z,74.28
2022-12-13T01:39:27.861Z,74.35
2022-12-13T01:41:59.824Z,74.43
2022-12-13T01:44:56.588Z,74.18
2022-12-13T01:47:28.749Z,74.39
2022-12-13T01:50:00.158Z,74.22
2022-12-13T01:52:32.485Z,74.29
2022-12-13T01:55:07.248Z,74.22
2022-12-13T01:57:40.781Z,74.16
2022-12-13T02:00:12.770Z,74.23
2022-12-13T02:02:41.576Z,74.21
2022-12-13T02:05:14.441Z,74.02
2022-12-13T02:07:44.674Z,74.03
2022-12-13T02:10:13.577Z,73.90
2022-12-13T02:12:44.210Z,74.01
2022-12-13T02:15:15.887Z,73.72
2022-12-13T02:17:56.751Z,73.78
2022-12-13T02:20:51.535Z,73.49
2022-12-13T02:23:38.122Z,73.30
2022-12-13T02:26:15.140Z,73.46
2022-12-13T02:29:06.664Z,73.42
2022-12-13T02:31:40.960Z,73.21
2022-12-13T02:34:28.093Z,73.15
2022-12-13T02:37:06.730Z,73.15
2022-12-13T02:39:53.444Z,73.20
2022-12-13T02:42:31.913Z,72.99
2022-12-13T02:45:07.495Z,73.06
2022-12-13T02:47:42.565Z,73.07
2022-12-13T02:50:14.889Z,72.87
2022-12-13T02:52:46.847Z,72.79
2022-12-13T02:55:17.368Z,72.88
2022-12-13T02:57:46.303Z,72.80
2022-12-13T03:00:19.401Z,72.89
2022-12-13T03:03:12.655Z,72.74
2022-12-13T03:06:05.510Z,72.80
2022-12-13T03:09:10.665Z,72.73
2022-12-13T03:12:48.067Z,72.69
2022-12-13T03:15:28.328Z,72.78
2022-12-13T03:18:05.811Z,72.78
2022-12-13T03:20:34.306Z,72.69
2022-12-13T03:23:02.470Z,72.58
2022-12-13T03:25:32.838Z,72.58
2022-12-13T03:28:02.760Z,72.36
2022-12-13T03:30:32.855Z,72.42
2022-12-13T03:33:01.691Z,72.54
2022-12-13T03:35:35.070Z,72.48
2022-12-13T03:38:22.244Z,72.32
2022-12-13T03:40:59.126Z,72.44
2022-12-13T03:43:28.540Z,72.23
2022-12-13T03:45:57.484Z,72.30
2022-12-13T03:48:26.153Z,72.24
2022-12-13T03:50:55.027Z,72.32
2022-12-13T03:53:32.633Z,72.42
2022-12-13T03:56:04.793Z,72.40
2022-12-13T03:58:37.661Z,72.49
2022-12-13T04:01:12.939Z,72.52
2022-12-13T04:03:44.345Z,72.48
2022-12-13T04:06:21.902Z,72.32
2022-12-13T04:08:52.524Z,72.56
2022-12-13T04:11:42.601Z,72.34
2022-12-13T04:14:22.418Z,72.51
2022-12-13T04:16:52.617Z,72.27
2022-12-13T04:19:22.961Z,72.32
2022-12-13T04:21:54.593Z,72.37
2022-12-13T04:24:31.855Z,72.31
2022-12-13T04:27:01.573Z,72.27
2022-12-13T04:29:34.501Z,72.34
2022-12-13T04:32:26.676Z,72.43
2022-12-13T04:35:01.029Z,72.28
2022-12-13T04:37:30.629Z,72.25
2022-12-13T04:40:00.710Z,72.14
2022-12-13T04:42:29.679Z,72.07
2022-12-13T04:44:58.010Z,71.98
2022-12-13T04:47:26.592Z,72.02
2022-12-13T04:49:55.377Z,72.03
2022-12-13T04:52:23.771Z,72.19
2022-12-13T04:54:56.087Z,72.15
2022-12-13T04:57:24.980Z,71.96
2022-12-13T04:59:53.417Z,71.93
2022-12-13T05:02:23.358Z,72.12
2022-12-13T05:04:54.027Z,71.90
2022-12-13T05:07:28.303Z,71.99
2022-12-13T05:09:56.784Z,71.91
2022-12-13T05:12:25.253Z,72.17
2022-12-13T05:14:54.260Z,71.85
2022-12-13T05:17:23.184Z,71.87
2022-12-13T05:19:51.725Z,71.65
2022-12-13T05:22:21.174Z,71.70
2022-12-13T05:24:49.724Z,71.56
2022-12-13T05:27:25.048Z,71.50
2022-12-13T05:30:03.737Z,71.58
2022-12-13T05:32:43.107Z,70.39
2022-12-13T05:35:22.496Z,68.98
2022-12-13T05:37:53.697Z,68.74
2022-12-13T05:40:24.459Z,68.60
2022-12-13T05:43:01.565Z,69.03
2022-12-13T05:45:31.910Z,69.24
2022-12-13T05:48:01.681Z,68.71
2022-12-13T05:50:30.211Z,68.22
2022-12-13T05:52:58.657Z,68.61
2022-12-13T05:55:27.026Z,69.24
2022-12-13T05:57:55.525Z,69.87
2022-12-13T06:00:31.389Z,70.18
2022-12-13T06:03:01.486Z,70.42
2022-12-13T06:05:31.041Z,70.56
2022-12-13T06:07:59.613Z,70.91
2022-12-13T06:10:34.245Z,71.26
2022-12-13T06:13:21.428Z,71.18
2022-12-13T06:16:01.524Z,71.19
2022-12-13T06:18:32.956Z,71.41
2022-12-13T06:21:06.237Z,71.34
2022-12-13T06:23:35.440Z,71.58
2022-12-13T06:26:05.465Z,71.59
2022-12-13T06:28:33.961Z,71.60
2022-12-13T06:31:05.198Z,71.81
2022-12-13T06:33:38.299Z,71.94
2022-12-13T06:36:07.179Z,71.90
2022-12-13T06:38:35.488Z,71.94
2022-12-13T06:41:17.115Z,72.03
2022-12-13T06:43:47.281Z,72.04
2022-12-13T06:46:15.944Z,71.80
2022-12-13T06:48:44.651Z,71.45
2022-12-13T06:51:12.939Z,71.23
2022-12-13T06:53:51.011Z,71.26
2022-12-13T06:56:19.213Z,71.01
2022-12-13T06:58:47.814Z,71.15
2022-12-13T07:01:24.202Z,70.99
2022-12-13T07:03:56.761Z,70.95
2022-12-13T07:06:26.781Z,71.27
2022-12-13T07:08:58.271Z,71.15
2022-12-13T07:11:31.942Z,71.03
2022-12-13T07:14:02.050Z,70.88
2022-12-13T07:16:30.858Z,70.83
2022-12-13T07:19:01.628Z,70.58
2022-12-13T07:21:31.298Z,70.35
2022-12-13T07:23:59.522Z,70.44
2022-12-13T07:26:27.958Z,70.36
2022-12-13T07:28:57.157Z,70.38
2022-12-13T07:31:29.529Z,70.09
2022-12-13T07:33:58.536Z,70.07
2022-12-13T07:36:27.024Z,70.00
2022-12-13T07:38:57.770Z,70.02
2022-12-13T07:41:27.275Z,69.71
2022-12-13T07:43:56.292Z,69.80
2022-12-13T07:46:33.068Z,69.55
2022-12-13T07:49:03.364Z,69.26
2022-12-13T07:51:35.176Z,69.11
2022-12-13T07:54:06.250Z,68.69
2022-12-13T07:56:37.822Z,68.58
2022-12-13T07:59:06.535Z,68.22
2022-12-13T08:01:35.237Z,68.12
2022-12-13T08:04:05.261Z,68.01
2022-12-13T08:06:38.329Z,67.97
2022-12-13T08:09:07.134Z,67.67
2022-12-13T08:11:37.948Z,67.46
2022-12-13T08:14:07.450Z,67.59
2022-12-13T08:16:37.249Z,67.54
2022-12-13T08:19:06.281Z,67.75
2022-12-13T08:21:53.913Z,67.75
2022-12-13T08:24:26.357Z,67.78
2022-12-13T08:27:01.530Z,68.09
2022-12-13T08:29:36.252Z,67.94
2022-12-13T08:32:07.793Z,67.59
2022-12-13T08:34:36.897Z,67.61
2022-12-13T08:37:05.712Z,67.20
2022-12-13T08:39:36.806Z,67.21
2022-12-13T08:42:19.462Z,67.22
2022-12-13T08:44:51.003Z,66.97
2022-12-13T08:47:26.862Z,66.79
2022-12-13T08:50:02.892Z,66.78
2022-12-13T08:52:39.577Z,66.83
2022-12-13T08:55:12.084Z,66.85
2022-12-13T08:57:42.306Z,66.74
2022-12-13T09:00:19.194Z,66.81
2022-12-13T09:02:47.818Z,66.65
2022-12-13T09:05:33.129Z,66.45
2022-12-13T09:08:23.476Z,66.09
2022-12-13T09:11:00.880Z,65.80
2022-12-13T09:13:33.056Z,65.35
2022-12-13T09:16:14.108Z,65.45
2022-12-13T09:18:55.147Z,65.43
2022-12-13T09:21:31.498Z,65.68
2022-12-13T09:24:02.280Z,66.02
2022-12-13T09:26:37.860Z,65.62
2022-12-13T09:29:10.942Z,65.61
2022-12-13T09:31:41.135Z,65.16
2022-12-13T09:34:11.660Z,64.98
2022-12-13T09:36:40.663Z,65.09
2022-12-13T09:39:12.433Z,65.32
2022-12-13T09:41:50.849Z,65.15
2022-12-13T09:44:42.440Z,65.31
2022-12-13T09:47:38.652Z,65.43
2022-12-13T09:50:26.548Z,65.17
2022-12-13T09:52:59.851Z,65.51
2022-12-13T09:55:32.766Z,65.54
2022-12-13T09:58:11.461Z,65.72
2022-12-13T10:00:41.409Z,65.44
2022-12-13T10:03:15.085Z,65.24
2022-12-13T10:05:51.962Z,65.08
2022-12-13T10:08:35.916Z,64.64
2022-12-13T10:11:05.016Z,64.58
2022-12-13T10:13:36.976Z,64.48
2022-12-13T10:16:23.434Z,64.57
2022-12-13T10:18:52.990Z,64.47
2022-12-13T10:21:34.378Z,64.67
2022-12-13T10:24:36.335Z,64.82
2022-12-13T10:27:14.685Z,64.42
2022-12-13T10:30:08.240Z,64.32
2022-12-13T10:32:50.426Z,63.58
2022-12-13T10:35:24.655Z,63.04
2022-12-13T10:37:54.567Z,62.78
2022-12-13T10:40:37.903Z,62.79
2022-12-13T10:43:14.175Z,62.68
2022-12-13T10:45:57.037Z,62.41
2022-12-13T10:48:42.233Z,62.37
2022-12-13T10:51:14.914Z,62.59
2022-12-13T10:53:56.740Z,62.51
2022-12-13T10:56:45.625Z,62.79
2022-12-13T10:59:34.060Z,62.72
2022-12-13T11:02:32.519Z,62.57
2022-12-13T11:05:28.584Z,62.79
2022-12-13T11:08:12.922Z,63.27
2022-12-13T11:10:42.033Z,63.32
2022-12-13T11:13:25.483Z,63.41
2022-12-13T11:15:57.033Z,63.05
2022-12-13T11:18:30.412Z,63.16
2022-12-13T11:21:04.142Z,63.05
2022-12-13T11:23:38.238Z,62.31
2022-12-13T11:26:16.362Z,62.70
2022-12-13T11:28:56.195Z,62.07
2022-12-13T11:31:40.818Z,62.27
2022-12-13T11:34:21.425Z,62.59
2022-12-13T11:37:10.406Z,62.83
2022-12-13T11:39:47.556Z,62.62
2022-12-13T11:42:27.645Z,62.52
2022-12-13T11:45:28.893Z,62.59
2022-12-13T11:48:23.680Z,63.26
2022-12-13T11:50:56.784Z,63.48
2022-12-13T11:53:34.508Z,63.56
2022-12-13T11:56:27.643Z,63.58
2022-12-13T11:59:26.544Z,63.41
2022-12-13T12:02:35.629Z,63.69
2022-12-13T12:05:28.444Z,64.13
2022-12-13T12:08:32.311Z,64.71
2022-12-13T12:11:09.548Z,64.74
2022-12-13T12:13:55.848Z,64.83
2022-12-13T12:16:41.216Z,64.44
2022-12-13T12:19:15.362Z,64.29
2022-12-13T12:22:13.228Z,64.20
2022-12-13T12:24:53.791Z,63.87
2022-12-13T12:27:48.378Z,64.29
2022-12-13T12:30:22.788Z,64.57
2022-12-13T12:33:34.714Z,63.93
2022-12-13T12:36:11.998Z,63.45
2022-12-13T12:39:06.085Z,63.36
2022-12-13T12:42:00.550Z,62.99
2022-12-13T12:44:50.868Z,62.93
2022-12-13T12:48:08.914Z,62.79
2022-12-13T12:50:25.821Z,62.67
2022-12-13T12:53:12.137Z,62.75
2022-12-13T12:55:52.484Z,62.81
2022-12-13T12:58:30.706Z,62.81
2022-12-13T13:01:33.449Z,62.77
2022-12-13T13:04:12.315Z,62.54
2022-12-13T13:07:01.462Z,62.37
2022-12-13T13:09:31.505Z,61.97
2022-12-13T13:12:28.378Z,61.90
2022-12-13T13:14:55.410Z,61.98
2022-12-13T13:17:23.911Z,61.98
2022-12-13T13:20:23.402Z,61.97
2022-12-13T13:23:44.040Z,61.89
2022-12-13T13:26:16.318Z,61.90
2022-12-13T13:28:44.259Z,62.02
2022-12-13T13:31:12.944Z,61.92
2022-12-13T13:33:45.333Z,62.01
2022-12-13T13:36:45.141Z,61.80
2022-12-13T13:39:36.966Z,61.84
2022-12-13T13:42:14.707Z,61.83
2022-12-13T13:44:46.133Z,61.62
2022-12-13T13:47:20.768Z,61.64
2022-12-13T13:50:13.410Z,61.58
2022-12-13T13:52:44.661Z,61.81
2022-12-13T13:55:35.560Z,61.78
2022-12-13T13:58:25.345Z,62.04
2022-12-13T14:01:38.009Z,61.87
2022-12-13T14:04:37.921Z,61.92
2022-12-13T14:07:27.155Z,61.85
2022-12-13T14:10:17.203Z,61.83
2022-12-13T14:13:23.339Z,61.79
2022-12-13T14:16:12.137Z,61.48
2022-12-13T14:19:26.755Z,61.38
2022-12-13T14:22:40.595Z,61.17
2022-12-13T14:25:33.848Z,60.97
2022-12-13T14:28:27.322Z,60.85
2022-12-13T14:31:01.414Z,60.87
2022-12-13T14:33:30.317Z,60.54
2022-12-13T14:36:02.021Z,60.65
2022-12-13T14:38:32.546Z,60.73
2022-12-13T14:41:03.156Z,60.84
2022-12-13T14:43:34.300Z,60.89
2022-12-13T14:46:06.072Z,60.82
2022-12-13T14:48:42.950Z,60.85
2022-12-13T14:51:34.880Z,60.83
2022-12-13T14:54:06.838Z,60.95
2022-12-13T14:56:54.929Z,61.02
2022-12-13T14:59:23.895Z,60.84
2022-12-13T15:02:02.926Z,60.83
2022-12-13T15:04:37.971Z,60.96
2022-12-13T15:07:33.011Z,60.93
2022-12-13T15:10:18.442Z,60.46
2022-12-13T15:12:48.056Z,60.18
2022-12-13T15:15:43.081Z,60.05
2022-12-13T15:18:20.456Z,60.04
2022-12-13T15:20:55.391Z,60.24
2022-12-13T15:23:34.428Z,60.26
2022-12-13T15:26:29.405Z,60.36
2022-12-13T15:29:09.474Z,60.60
2022-12-13T15:31:40.847Z,60.57
2022-12-13T15:34:28.961Z,60.89
2022-12-13T15:37:28.248Z,60.94
2022-12-13T15:40:08.557Z,60.91
2022-12-13T15:42:43.696Z,60.91
2022-12-13T15:45:22.207Z,60.98
2022-12-13T15:47:52.324Z,61.08
2022-12-13T15:50:45.459Z,61.18
2022-12-13T15:53:29.168Z,61.35
2022-12-13T15:55:57.910Z,61.29
2022-12-13T15:58:35.315Z,61.34
2022-12-13T16:01:05.901Z,61.12
2022-12-13T16:03:43.871Z,60.56
2022-12-13T16:06:19.101Z,60.70
2022-12-13T16:08:51.457Z,61.04
2022-12-13T16:11:33.777Z,61.06
2022-12-13T16:14:26.748Z,61.17
2022-12-13T16:16:57.236Z,61.28
2022-12-13T16:19:26.366Z,61.23
2022-12-13T16:21:55.080Z,61.36
2022-12-13T16:24:23.543Z,61.57
2022-12-13T16:26:51.993Z,61.68
2022-12-13T16:29:20.825Z,61.61
2022-12-13T16:31:49.873Z,61.58
2022-12-13T16:34:19.924Z,61.40
2022-12-13T16:36:56.002Z,61.43
2022-12-13T16:39:25.461Z,61.52
2022-12-13T16:41:54.496Z,61.73
2022-12-13T16:44:43.258Z,61.96
2022-12-13T16:47:22.258Z,62.01
2022-12-13T16:49:55.912Z,62.17
2022-12-13T16:52:24.581Z,61.97
2022-12-13T16:54:53.051Z,62.13
2022-12-13T16:57:22.034Z,62.13
2022-12-13T16:59:51.265Z,62.19
2022-12-13T17:02:20.513Z,62.33
2022-12-13T17:04:49.267Z,62.34
2022-12-13T17:07:18.036Z,62.45
2022-12-13T17:09:47.246Z,62.46
2022-12-13T17:12:15.845Z,62.59
2022-12-13T17:14:44.520Z,62.61
2022-12-13T17:17:17.514Z,62.37
2022-12-13T17:19:47.897Z,62.38
2022-12-13T17:22:18.476Z,62.24
2022-12-13T17:24:47.254Z,62.19
2022-12-13T17:27:16.357Z,62.29
2022-12-13T17:29:45.247Z,62.43
2022-12-13T17:32:14.592Z,62.34
2022-12-13T17:34:43.367Z,62.34
2022-12-13T17:37:11.721Z,62.54
2022-12-13T17:39:40.316Z,62.50
2022-12-13T17:42:09.818Z,62.57
2022-12-13T17:44:39.215Z,62.57
2022-12-13T17:47:08.523Z,62.86
2022-12-13T17:49:37.296Z,62.95
2022-12-13T17:52:06.619Z,63.01
2022-12-13T17:54:35.498Z,62.94
2022-12-13T17:57:06.074Z,63.04
2022-12-13T17:59:39.729Z,63.35
2022-12-13T18:02:14.450Z,63.67
2022-12-13T18:07:28.253Z,63.90
2022-12-13T18:09:58.401Z,63.66
2022-12-13T18:12:27.582Z,63.67
2022-12-13T18:14:57.672Z,63.87
2022-12-13T18:17:46.730Z,63.85
2022-12-13T18:20:17.459Z,63.99
2022-12-13T18:22:51.190Z,63.94
2022-12-13T18:25:21.025Z,63.86
2022-12-13T18:27:53.838Z,64.14
2022-12-13T18:30:28.537Z,64.43
2022-12-13T18:32:57.733Z,64.24
2022-12-13T18:35:26.470Z,64.29
2022-12-13T18:37:55.710Z,64.38
2022-12-13T18:40:25.555Z,64.27
2022-12-13T18:42:55.179Z,64.02
2022-12-13T18:45:24.429Z,64.04
2022-12-13T18:47:52.887Z,64.02
2022-12-13T18:50:21.928Z,64.05
2022-12-13T18:52:50.939Z,63.83
2022-12-13T18:55:19.825Z,63.55
2022-12-13T18:57:51.366Z,63.59
2022-12-13T19:00:20.803Z,63.49
2022-12-13T19:02:49.757Z,63.59
2022-12-13T19:05:18.266Z,63.60
2022-12-13T19:07:47.261Z,63.74
2022-12-13T19:10:16.037Z,63.95
2022-12-13T19:12:44.771Z,63.91
2022-12-13T19:15:14.456Z,63.88
2022-12-13T19:17:43.867Z,64.04
2022-12-13T19:20:13.104Z,63.64
2022-12-13T19:22:41.843Z,63.61
2022-12-13T19:25:10.742Z,63.40
2022-12-13T19:27:39.739Z,63.42
2022-12-13T19:30:10.776Z,63.17
2022-12-13T19:32:39.886Z,63.20
2022-12-13T19:35:09.596Z,63.25
2022-12-13T19:37:38.780Z,63.32
2022-12-13T19:40:07.995Z,63.28
2022-12-13T19:42:37.635Z,63.43
2022-12-13T19:45:07.722Z,63.38
2022-12-13T19:47:36.717Z,63.32
2022-12-13T19:50:06.126Z,63.47
2022-12-13T19:52:34.699Z,63.47
2022-12-13T19:55:03.710Z,63.75
2022-12-13T19:57:33.627Z,63.45
2022-12-13T20:00:03.202Z,63.26
2022-12-13T20:02:35.362Z,63.17
2022-12-13T20:05:04.300Z,63.12
2022-12-13T20:07:32.883Z,63.07
2022-12-13T20:10:01.674Z,63.20
2022-12-13T20:12:31.416Z,63.00
2022-12-13T20:15:03.757Z,62.92
2022-12-13T20:17:32.975Z,62.64
2022-12-13T20:20:01.601Z,62.69
2022-12-13T20:22:30.327Z,62.76
2022-12-13T20:24:59.019Z,62.76
2022-12-13T20:27:27.939Z,62.75
2022-12-13T20:29:56.913Z,62.60
2022-12-13T20:32:25.699Z,62.46
2022-12-13T20:34:55.058Z,62.48
2022-12-13T20:37:28.093Z,62.63
2022-12-13T20:39:57.201Z,62.48
2022-12-13T20:42:25.991Z,62.81
2022-12-13T20:45:00.493Z,62.83
2022-12-13T20:47:33.797Z,62.83
2022-12-13T20:50:06.286Z,62.79
2022-12-13T20:52:35.385Z,62.57
2022-12-13T20:55:04.479Z,62.56
2022-12-13T20:57:33.486Z,62.57
2022-12-13T21:00:04.027Z,62.58
2022-12-13T21:02:33.215Z,62.73
2022-12-13T21:05:02.081Z,62.68
2022-12-13T21:07:49.031Z,62.65
2022-12-13T21:10:17.510Z,62.92
2022-12-13T21:12:46.094Z,62.79
2022-12-13T21:15:14.902Z,62.92
2022-12-13T21:17:43.907Z,62.63
2022-12-13T21:20:12.748Z,62.67
2022-12-13T21:22:41.705Z,62.68
2022-12-13T21:25:11.290Z,62.65
2022-12-13T21:27:43.159Z,62.58
2022-12-13T21:30:12.697Z,62.72
2022-12-13T21:32:41.666Z,62.87
2022-12-13T21:35:11.968Z,62.72
2022-12-13T21:37:40.969Z,62.73
2022-12-13T21:40:09.960Z,62.71
2022-12-13T21:42:38.449Z,62.94
2022-12-13T21:45:07.546Z,62.60
2022-12-13T21:47:36.020Z,62.42
2022-12-13T21:50:04.922Z,62.16
2022-12-13T21:52:36.287Z,61.81
2022-12-13T21:55:37.382Z,61.94
2022-12-13T21:58:13.560Z,62.12
2022-12-13T22:00:42.911Z,62.44
2022-12-13T22:03:12.632Z,62.49
2022-12-13T22:05:41.519Z,62.49
2022-12-13T22:08:11.329Z,62.14
2022-12-13T22:11:00.600Z,62.00
2022-12-13T22:13:29.346Z,61.92
2022-12-13T22:15:58.684Z,61.86
2022-12-13T22:18:28.459Z,61.94
2022-12-13T22:20:58.298Z,62.16
2022-12-13T22:23:30.265Z,62.02
2022-12-13T22:25:59.271Z,61.95
2022-12-13T22:28:29.600Z,62.16
2022-12-13T22:30:58.172Z,62.16
2022-12-13T22:33:27.372Z,62.09
2022-12-13T22:35:55.652Z,62.24
2022-12-13T22:38:24.450Z,62.09
2022-12-13T22:40:53.143Z,62.10
2022-12-13T22:43:21.534Z,62.02
2022-12-13T22:45:49.948Z,61.98
2022-12-13T22:48:19.298Z,62.03
2022-12-13T22:50:47.478Z,61.84
2022-12-13T22:53:15.877Z,61.80
2022-12-13T22:55:45.177Z,61.77
2022-12-13T22:58:16.201Z,61.56
2022-12-13T23:00:44.670Z,61.38
2022-12-13T23:03:13.203Z,61.45
2022-12-13T23:05:42.062Z,61.15
2022-12-13T23:08:10.656Z,61.18
2022-12-13T23:10:57.518Z,60.93
2022-12-13T23:13:25.845Z,60.82
2022-12-13T23:15:54.425Z,60.83
2022-12-13T23:18:22.817Z,60.86
2022-12-13T23:20:51.193Z,60.70
2022-12-13T23:23:19.887Z,60.73
2022-12-13T23:25:48.879Z,60.58
2022-12-13T23:28:17.573Z,60.68
2022-12-13T23:30:45.878Z,60.42
2022-12-13T23:33:14.125Z,60.26
2022-12-13T23:35:42.412Z,60.22
2022-12-13T23:38:10.497Z,60.19
2022-12-13T23:40:38.659Z,59.88
2022-12-13T23:43:06.836Z,59.87
2022-12-13T23:45:34.954Z,59.56
2022-12-13T23:48:03.288Z,59.46
2022-12-13T23:50:31.778Z,59.62
2022-12-13T23:52:59.943Z,59.85
2022-12-13T23:55:28.230Z,59.87
2022-12-13T23:57:56.511Z,60.13
